Time;durP1;ratioP1;P1;durP2;ratioP2;P2;SDS_P1;SDS_P2;PMS_P1;PMS_P2;Temp;Humidity;BMP_temperature;BMP_pressure;BME280_temperature;BME280_humidity;BME280_pressure;Samples;Min_cycle;Max_cycle;Signal;HPM_P1;HPM_P2
2023/01/08 00:00:29;;;;;;;;;;;9.80;99.90;;;;;;5013797;28;19980;-77
2023/01/08 00:02:54;;;;;;;;;;;9.80;99.90;;;;;;5015060;28;19925;-77
2023/01/08 00:05:20;;;;;;;;;;;9.90;99.90;;;;;;5017476;28;19972;-77
2023/01/08 00:07:45;;;;;;;;;;;9.90;99.90;;;;;;5013895;28;19969;-77
2023/01/08 00:10:11;;;;;;;;;;;9.90;99.90;;;;;;5012928;28;19930;-77
2023/01/08 00:12:36;;;;;;;;;;;9.90;99.90;;;;;;5013609;28;19937;-77
2023/01/08 00:15:02;;;;;;;;;;;9.90;99.90;;;;;;5031511;28;19926;-77
2023/01/08 00:17:28;;;;;;;;;;;9.90;99.90;;;;;;5011762;28;19930;-77
2023/01/08 00:19:53;;;;;;;;;;;9.90;99.90;;;;;;5011944;28;19929;-77
2023/01/08 00:22:19;;;;;;;;;;;9.90;99.90;;;;;;5010431;28;19948;-77
2023/01/08 00:24:44;;;;;;;;;;;9.90;99.90;;;;;;5010977;28;19937;-77
2023/01/08 00:27:10;;;;;;;;;;;9.90;99.90;;;;;;5010386;28;19937;-77
2023/01/08 00:29:36;;;;;;;;;;;9.90;99.90;;;;;;5010730;28;19938;-76
2023/01/08 00:32:02;;;;;;;;;;;9.90;99.90;;;;;;5010114;28;19932;-77
2023/01/08 00:34:28;;;;;;;;;;;9.80;99.90;;;;;;5010412;28;19933;-77
2023/01/08 00:36:53;;;;;;;;;;;9.80;99.90;;;;;;5011762;28;19929;-77
2023/01/08 00:39:19;;;;;;;;;;;9.80;99.90;;;;;;5012223;28;20047;-77
2023/01/08 00:41:44;;;;;;;;;;;9.90;99.90;;;;;;5014938;28;20385;-77
2023/01/08 00:44:10;;;;;;;;;;;9.80;99.90;;;;;;5014290;28;19925;-78
2023/01/08 00:46:35;;;;;;;;;;;9.90;99.90;;;;;;5016060;28;19952;-77
2023/01/08 00:49:01;;;;;;;;;;;9.90;99.90;;;;;;5019870;28;19926;-77
2023/01/08 00:51:27;;;;;;;;;;;9.80;99.90;;;;;;5008714;28;20426;-77
2023/01/08 00:53:52;;;;;;;;;;;9.80;99.90;;;;;;5016487;28;20399;-78
2023/01/08 00:56:18;;;;;;;;;;;9.80;99.90;;;;;;5016308;28;19933;-78
2023/01/08 00:58:43;;;;;;;;;;;9.70;99.90;;;;;;5017181;28;19937;-78
2023/01/08 01:01:10;;;;;;;;;;;9.80;99.90;;;;;;5021541;28;20425;-77
2023/01/08 01:03:36;;;;;;;;;;;9.70;99.90;;;;;;5016294;28;19937;-78
2023/01/08 01:06:03;;;;;;;;;;;9.70;99.90;;;;;;5031338;28;19926;-78
2023/01/08 01:08:28;;;;;;;;;;;9.70;99.90;;;;;;5016665;28;19929;-78
2023/01/08 01:10:54;;;;;;;;;;;9.60;99.90;;;;;;5017897;28;19936;-77
2023/01/08 01:13:20;;;;;;;;;;;9.60;99.90;;;;;;5016747;28;19944;-77
2023/01/08 01:15:45;;;;;;;;;;;9.50;99.90;;;;;;5015704;28;19929;-77
2023/01/08 01:18:11;;;;;;;;;;;9.40;99.90;;;;;;5013698;28;19929;-77
2023/01/08 01:20:37;;;;;;;;;;;9.30;99.90;;;;;;5016312;28;19925;-78
2023/01/08 01:23:03;;;;;;;;;;;9.20;99.90;;;;;;5014327;28;19932;-77
2023/01/08 01:25:28;;;;;;;;;;;9.10;99.90;;;;;;5014934;28;20016;-77
2023/01/08 01:27:54;;;;;;;;;;;9.00;99.90;;;;;;5018548;28;19936;-77
2023/01/08 01:30:19;;;;;;;;;;;8.90;99.90;;;;;;5018480;28;20005;-77
2023/01/08 01:32:45;;;;;;;;;;;8.80;99.90;;;;;;5020305;28;19926;-77
2023/01/08 01:35:10;;;;;;;;;;;8.70;99.90;;;;;;5020124;28;19933;-77
2023/01/08 01:37:36;;;;;;;;;;;8.70;99.90;;;;;;5017792;28;19936;-77
2023/01/08 01:40:02;;;;;;;;;;;8.60;99.90;;;;;;5020015;28;20000;-78
2023/01/08 01:42:40;;;;;;;;;;;8.60;99.90;;;;;;5018353;28;19991;-78
2023/01/08 01:45:13;;;;;;;;;;;8.50;99.90;;;;;;5018616;28;19969;-78
2023/01/08 01:47:40;;;;;;;;;;;8.50;99.90;;;;;;5020248;28;19969;-78
2023/01/08 01:50:20;;;;;;;;;;;8.50;99.90;;;;;;5017979;28;19933;-78
2023/01/08 01:53:06;;;;;;;;;;;8.40;99.90;;;;;;5020199;28;19949;-78
2023/01/08 01:55:34;;;;;;;;;;;8.40;99.90;;;;;;5017724;28;19925;-78
2023/01/08 01:58:10;;;;;;;;;;;8.40;99.90;;;;;;5019784;28;20450;-78
2023/01/08 02:00:36;;;;;;;;;;;8.40;99.90;;;;;;5032737;28;19930;-78
2023/01/08 02:03:02;;;;;;;;;;;8.30;99.90;;;;;;5016485;28;19940;-79
2023/01/08 02:05:32;;;;;;;;;;;8.30;99.90;;;;;;5020420;28;19925;-79
2023/01/08 02:08:06;;;;;;;;;;;8.30;99.90;;;;;;5017789;28;19930;-79
2023/01/08 02:10:38;;;;;;;;;;;8.20;99.90;;;;;;5018003;28;19940;-79
2023/01/08 02:13:07;;;;;;;;;;;8.20;99.90;;;;;;5016548;28;19925;-79
2023/01/08 02:15:48;;;;;;;;;;;8.20;99.90;;;;;;5034497;28;19929;-78
2023/01/08 02:18:15;;;;;;;;;;;8.20;99.90;;;;;;5015788;28;19975;-79
2023/01/08 02:21:00;;;;;;;;;;;8.10;99.90;;;;;;5032748;28;19929;-79
2023/01/08 02:23:29;;;;;;;;;;;8.20;99.90;;;;;;5016954;28;19930;-79
2023/01/08 02:26:11;;;;;;;;;;;8.10;99.90;;;;;;5018345;28;20048;-79
2023/01/08 02:28:42;;;;;;;;;;;8.10;99.90;;;;;;5034311;28;19925;-78
2023/01/08 02:31:08;;;;;;;;;;;8.10;99.90;;;;;;5033096;28;19938;-79
2023/01/08 02:33:34;;;;;;;;;;;8.10;99.90;;;;;;5016763;28;19934;-79
2023/01/08 02:36:30;;;;;;;;;;;8.00;99.90;;;;;;5014139;28;19933;-79
2023/01/08 02:39:12;;;;;;;;;;;8.00;99.90;;;;;;4996421;28;19937;-79
2023/01/08 02:41:46;;;;;;;;;;;8.10;99.90;;;;;;5031937;28;19926;-79
2023/01/08 02:44:14;;;;;;;;;;;8.00;99.90;;;;;;5016547;28;20430;-79
2023/01/08 02:46:40;;;;;;;;;;;8.00;99.90;;;;;;5016059;28;20381;-79
2023/01/08 02:49:09;;;;;;;;;;;8.00;99.90;;;;;;5014697;28;19932;-78
2023/01/08 02:51:43;;;;;;;;;;;8.00;99.90;;;;;;5016873;28;20269;-78
2023/01/08 02:54:12;;;;;;;;;;;8.00;99.90;;;;;;5015720;28;20304;-78
2023/01/08 02:56:41;;;;;;;;;;;8.00;99.90;;;;;;5015380;28;20477;-78
2023/01/08 02:59:08;;;;;;;;;;;8.00;99.90;;;;;;5014744;28;19989;-78
2023/01/08 03:01:34;;;;;;;;;;;8.00;99.90;;;;;;5013990;28;20091;-78
2023/01/08 03:04:02;;;;;;;;;;;8.00;99.90;;;;;;5012998;28;20534;-78
2023/01/08 03:06:28;;;;;;;;;;;8.00;99.90;;;;;;5013552;28;19929;-78
2023/01/08 03:08:54;;;;;;;;;;;8.00;99.90;;;;;;5016216;28;19933;-78
2023/01/08 03:11:21;;;;;;;;;;;8.00;99.90;;;;;;5017804;28;20375;-79
2023/01/08 03:14:01;;;;;;;;;;;8.00;99.90;;;;;;5014957;28;19925;-79
2023/01/08 03:16:29;;;;;;;;;;;8.00;99.90;;;;;;5014217;28;20797;-79
2023/01/08 03:19:00;;;;;;;;;;;8.00;99.90;;;;;;5016547;28;20083;-78
2023/01/08 03:21:26;;;;;;;;;;;8.10;99.90;;;;;;5013869;28;19936;-79
2023/01/08 03:23:51;;;;;;;;;;;8.10;99.90;;;;;;5019143;28;19984;-78
2023/01/08 03:26:20;;;;;;;;;;;8.10;99.90;;;;;;5021001;28;19972;-78
2023/01/08 03:28:48;;;;;;;;;;;8.20;99.90;;;;;;5014213;28;20348;-78
2023/01/08 03:31:15;;;;;;;;;;;8.20;99.90;;;;;;5016172;28;19926;-78
2023/01/08 03:33:42;;;;;;;;;;;8.30;99.90;;;;;;5015829;28;19965;-79
2023/01/08 03:36:08;;;;;;;;;;;8.40;99.90;;;;;;5013314;28;19934;-79
2023/01/08 03:38:38;;;;;;;;;;;8.50;99.90;;;;;;5017957;28;19925;-78
2023/01/08 03:41:06;;;;;;;;;;;8.50;99.90;;;;;;5029758;28;20254;-78
2023/01/08 03:43:31;;;;;;;;;;;8.60;99.90;;;;;;5014473;28;19929;-78
2023/01/08 03:45:58;;;;;;;;;;;8.70;99.90;;;;;;5014744;28;19925;-78
2023/01/08 03:48:26;;;;;;;;;;;8.70;99.90;;;;;;5014855;28;19929;-78
2023/01/08 03:50:51;;;;;;;;;;;8.70;99.90;;;;;;5014024;28;19944;-78
2023/01/08 03:53:17;;;;;;;;;;;8.70;99.90;;;;;;5012630;28;19971;-79
2023/01/08 03:55:42;;;;;;;;;;;8.70;99.90;;;;;;5012885;28;20371;-78
2023/01/08 03:58:08;;;;;;;;;;;8.80;99.90;;;;;;5014583;28;19929;-78
2023/01/08 04:00:34;;;;;;;;;;;8.80;99.90;;;;;;5015967;28;19926;-78
2023/01/08 04:02:59;;;;;;;;;;;8.70;99.90;;;;;;5012173;28;19925;-78
2023/01/08 04:05:25;;;;;;;;;;;8.80;99.90;;;;;;5013766;28;19937;-78
2023/01/08 04:07:53;;;;;;;;;;;8.70;99.90;;;;;;5013106;28;20455;-78
2023/01/08 04:10:19;;;;;;;;;;;8.70;99.90;;;;;;5014351;28;20347;-78
2023/01/08 04:12:44;;;;;;;;;;;8.70;99.90;;;;;;5013032;28;19989;-78
2023/01/08 04:15:10;;;;;;;;;;;8.70;99.90;;;;;;5014740;28;19948;-78
2023/01/08 04:17:35;;;;;;;;;;;8.70;99.90;;;;;;5014380;28;20268;-78
2023/01/08 04:20:01;;;;;;;;;;;8.70;99.90;;;;;;5015495;28;19941;-78
2023/01/08 04:22:26;;;;;;;;;;;8.70;99.90;;;;;;5014611;28;19988;-78
2023/01/08 04:24:52;;;;;;;;;;;8.60;99.90;;;;;;5012245;28;19936;-78
2023/01/08 04:27:18;;;;;;;;;;;8.60;99.90;;;;;;5013069;28;19929;-78
2023/01/08 04:29:43;;;;;;;;;;;8.60;99.90;;;;;;5014415;28;19940;-77
2023/01/08 04:32:09;;;;;;;;;;;8.60;99.90;;;;;;5013773;28;19936;-78
2023/01/08 04:34:34;;;;;;;;;;;8.60;99.90;;;;;;5030965;28;20397;-78
2023/01/08 04:37:00;;;;;;;;;;;8.50;99.90;;;;;;5012829;28;20413;-78
2023/01/08 04:39:26;;;;;;;;;;;8.50;99.90;;;;;;5011855;28;19926;-78
2023/01/08 04:41:51;;;;;;;;;;;8.50;99.90;;;;;;5013118;28;20320;-78
2023/01/08 04:44:17;;;;;;;;;;;8.50;99.90;;;;;;5014965;28;19930;-79
2023/01/08 04:46:43;;;;;;;;;;;8.50;99.90;;;;;;5013464;28;19977;-78
2023/01/08 04:49:09;;;;;;;;;;;8.50;99.90;;;;;;5011277;28;20561;-78
2023/01/08 04:51:34;;;;;;;;;;;8.50;99.90;;;;;;5008584;28;19929;-78
2023/01/08 04:54:00;;;;;;;;;;;8.50;99.90;;;;;;5018270;28;19931;-77
2023/01/08 04:56:25;;;;;;;;;;;8.50;99.90;;;;;;5015296;28;19929;-77
2023/01/08 04:58:51;;;;;;;;;;;8.50;99.90;;;;;;5015625;28;19925;-78
2023/01/08 05:01:21;;;;;;;;;;;8.40;99.90;;;;;;5019861;28;19926;-78
2023/01/08 05:03:46;;;;;;;;;;;8.40;99.90;;;;;;5020449;28;19929;-78
2023/01/08 05:06:12;;;;;;;;;;;8.40;99.90;;;;;;5019543;28;20415;-77
2023/01/08 05:08:37;;;;;;;;;;;8.40;99.90;;;;;;5019960;28;19940;-77
2023/01/08 05:11:03;;;;;;;;;;;8.40;99.90;;;;;;5019442;28;20487;-77
2023/01/08 05:13:29;;;;;;;;;;;8.40;99.90;;;;;;5019846;28;19952;-78
2023/01/08 05:15:59;;;;;;;;;;;8.40;99.90;;;;;;5020363;28;19925;-78
2023/01/08 05:18:24;;;;;;;;;;;8.40;99.90;;;;;;5018090;28;19965;-78
2023/01/08 05:20:50;;;;;;;;;;;8.30;99.90;;;;;;5034471;28;20340;-78
2023/01/08 05:23:15;;;;;;;;;;;8.30;99.90;;;;;;5019829;28;20028;-78
2023/01/08 05:25:41;;;;;;;;;;;8.30;99.90;;;;;;5028166;28;19926;-78
2023/01/08 05:28:07;;;;;;;;;;;8.30;99.90;;;;;;5019706;28;19933;-78
2023/01/08 05:30:32;;;;;;;;;;;8.30;99.90;;;;;;5019428;28;19952;-78
2023/01/08 05:32:58;;;;;;;;;;;8.20;99.90;;;;;;5019233;28;19933;-78
2023/01/08 05:35:23;;;;;;;;;;;8.20;99.90;;;;;;5034414;28;19943;-78
2023/01/08 05:37:49;;;;;;;;;;;8.20;99.90;;;;;;5020930;28;19929;-78
2023/01/08 05:40:14;;;;;;;;;;;8.20;99.90;;;;;;5018991;28;20300;-78
2023/01/08 05:42:40;;;;;;;;;;;8.20;99.90;;;;;;4995673;28;20312;-78
2023/01/08 05:45:06;;;;;;;;;;;8.20;99.90;;;;;;5020030;28;19976;-78
2023/01/08 05:47:32;;;;;;;;;;;8.20;99.90;;;;;;5002059;28;20260;-78
2023/01/08 05:49:58;;;;;;;;;;;8.20;99.90;;;;;;5002187;28;19933;-78
2023/01/08 05:52:24;;;;;;;;;;;8.20;99.90;;;;;;5016659;28;19995;-78
2023/01/08 05:54:49;;;;;;;;;;;8.20;99.90;;;;;;5032613;28;19933;-79
2023/01/08 05:57:15;;;;;;;;;;;8.10;99.90;;;;;;5013694;28;19929;-78
2023/01/08 05:59:40;;;;;;;;;;;8.10;99.90;;;;;;5017860;28;19925;-78
2023/01/08 06:02:07;;;;;;;;;;;8.10;99.90;;;;;;5013231;28;19934;-78
2023/01/08 06:04:32;;;;;;;;;;;8.10;99.90;;;;;;5017872;28;19925;-78
2023/01/08 06:06:58;;;;;;;;;;;8.10;99.90;;;;;;5017470;28;19960;-79
2023/01/08 06:09:23;;;;;;;;;;;8.10;99.90;;;;;;5033975;28;19934;-78
2023/01/08 06:11:49;;;;;;;;;;;8.10;99.90;;;;;;5013226;28;19929;-78
2023/01/08 06:14:15;;;;;;;;;;;8.00;99.90;;;;;;5018355;28;20389;-79
2023/01/08 06:16:42;;;;;;;;;;;8.00;99.90;;;;;;5018516;28;19972;-79
2023/01/08 06:19:08;;;;;;;;;;;8.00;99.90;;;;;;4998054;28;19929;-79
2023/01/08 06:21:34;;;;;;;;;;;8.00;99.90;;;;;;5017791;28;20465;-78
2023/01/08 06:23:59;;;;;;;;;;;8.00;99.90;;;;;;5014469;28;19974;-78
2023/01/08 06:26:25;;;;;;;;;;;8.00;99.90;;;;;;5017042;28;19929;-78
2023/01/08 06:28:50;;;;;;;;;;;7.90;99.90;;;;;;5016732;28;19930;-78
2023/01/08 06:31:16;;;;;;;;;;;8.00;99.90;;;;;;5015753;28;19925;-79
2023/01/08 06:33:41;;;;;;;;;;;7.90;99.90;;;;;;5018202;28;19938;-78
2023/01/08 06:36:07;;;;;;;;;;;7.90;99.90;;;;;;5029599;28;20034;-78
2023/01/08 06:38:33;;;;;;;;;;;8.00;99.90;;;;;;5019853;28;19952;-78
2023/01/08 06:41:03;;;;;;;;;;;7.90;99.90;;;;;;5016913;28;19930;-78
2023/01/08 06:43:29;;;;;;;;;;;7.90;99.90;;;;;;5016895;28;20325;-78
2023/01/08 06:45:57;;;;;;;;;;;8.00;99.90;;;;;;5017726;28;19925;-78
2023/01/08 06:48:22;;;;;;;;;;;8.00;99.90;;;;;;5021434;28;19933;-78
2023/01/08 06:50:48;;;;;;;;;;;7.90;99.90;;;;;;5016972;28;19925;-78
2023/01/08 06:53:13;;;;;;;;;;;7.90;99.90;;;;;;5017194;28;19930;-78
2023/01/08 06:55:39;;;;;;;;;;;7.90;99.90;;;;;;5031507;28;19941;-78
2023/01/08 06:58:05;;;;;;;;;;;7.90;99.90;;;;;;5017580;28;19929;-78
2023/01/08 07:00:30;;;;;;;;;;;7.90;99.90;;;;;;5016716;28;19930;-78
2023/01/08 07:02:56;;;;;;;;;;;7.90;99.90;;;;;;5017340;28;19925;-78
2023/01/08 07:05:21;;;;;;;;;;;7.90;99.90;;;;;;5016477;28;19925;-78
2023/01/08 07:07:47;;;;;;;;;;;7.90;99.90;;;;;;5017831;28;20567;-79
2023/01/08 07:10:13;;;;;;;;;;;7.90;99.90;;;;;;5019862;28;19987;-78
2023/01/08 07:12:38;;;;;;;;;;;7.90;99.90;;;;;;5018017;28;19929;-78
2023/01/08 07:15:05;;;;;;;;;;;7.90;99.90;;;;;;5016738;28;19933;-78
2023/01/08 07:17:31;;;;;;;;;;;8.00;99.90;;;;;;5014791;28;19930;-78
2023/01/08 07:19:57;;;;;;;;;;;8.00;99.90;;;;;;4998149;28;19925;-78
2023/01/08 07:22:24;;;;;;;;;;;8.00;99.90;;;;;;5029340;28;19925;-78
2023/01/08 07:24:50;;;;;;;;;;;8.00;99.90;;;;;;5016215;28;20489;-78
2023/01/08 07:27:16;;;;;;;;;;;7.90;99.90;;;;;;5014552;28;19925;-78
2023/01/08 07:29:41;;;;;;;;;;;7.90;99.90;;;;;;5022987;28;20360;-77
2023/01/08 07:32:07;;;;;;;;;;;7.90;99.90;;;;;;5014229;28;19926;-78
2023/01/08 07:34:33;;;;;;;;;;;7.80;99.90;;;;;;5015380;28;19925;-78
2023/01/08 07:36:59;;;;;;;;;;;7.80;99.90;;;;;;5014619;28;19936;-77
2023/01/08 07:39:25;;;;;;;;;;;7.70;99.90;;;;;;5015564;28;20020;-77
2023/01/08 07:41:50;;;;;;;;;;;7.70;99.90;;;;;;5015661;28;19932;-78
2023/01/08 07:44:16;;;;;;;;;;;7.60;99.90;;;;;;5016610;28;19929;-78
2023/01/08 07:46:42;;;;;;;;;;;7.60;99.90;;;;;;5031612;28;19936;-78
2023/01/08 07:49:07;;;;;;;;;;;7.50;99.90;;;;;;5016379;28;19932;-78
2023/01/08 07:51:33;;;;;;;;;;;7.50;99.90;;;;;;5015751;28;19925;-77
2023/01/08 07:53:58;;;;;;;;;;;7.40;99.90;;;;;;5016670;28;19934;-78
2023/01/08 07:56:24;;;;;;;;;;;7.30;99.90;;;;;;5018376;28;20412;-78
2023/01/08 07:58:50;;;;;;;;;;;7.30;99.90;;;;;;5019234;28;19929;-78
2023/01/08 08:01:16;;;;;;;;;;;7.30;99.90;;;;;;5015912;28;19925;-78
2023/01/08 08:03:41;;;;;;;;;;;7.30;99.90;;;;;;5016456;28;19926;-80
2023/01/08 08:06:07;;;;;;;;;;;7.20;99.90;;;;;;5017976;28;19985;-80
2023/01/08 08:08:33;;;;;;;;;;;7.20;99.90;;;;;;5032085;28;19926;-80
2023/01/08 08:10:59;;;;;;;;;;;7.20;99.90;;;;;;5016478;28;20060;-80
2023/01/08 08:13:24;;;;;;;;;;;7.10;99.90;;;;;;5015224;28;19936;-80
2023/01/08 08:15:50;;;;;;;;;;;7.10;99.90;;;;;;5017851;28;19929;-80
2023/01/08 08:18:15;;;;;;;;;;;7.10;99.90;;;;;;5017469;28;19941;-80
2023/01/08 08:20:41;;;;;;;;;;;7.00;99.90;;;;;;5015793;28;19972;-80
2023/01/08 08:23:07;;;;;;;;;;;7.00;99.90;;;;;;5030503;28;19929;-80
2023/01/08 08:25:33;;;;;;;;;;;7.00;99.90;;;;;;5035652;28;19925;-80
2023/01/08 08:27:59;;;;;;;;;;;7.00;99.90;;;;;;5021728;28;20012;-80
2023/01/08 08:30:26;;;;;;;;;;;7.00;99.90;;;;;;5015955;28;19926;-80
2023/01/08 08:32:52;;;;;;;;;;;7.00;99.90;;;;;;5031533;28;19932;-81
2023/01/08 08:35:17;;;;;;;;;;;7.10;99.90;;;;;;5013367;28;19930;-80
2023/01/08 08:37:43;;;;;;;;;;;7.10;99.90;;;;;;5017053;28;19930;-80
2023/01/08 08:40:09;;;;;;;;;;;7.20;99.90;;;;;;5017036;28;20425;-80
2023/01/08 08:42:34;;;;;;;;;;;7.20;99.90;;;;;;5019739;28;19936;-80
2023/01/08 08:45:00;;;;;;;;;;;7.20;99.90;;;;;;5018509;28;20457;-80
2023/01/08 08:47:25;;;;;;;;;;;7.10;99.90;;;;;;5020836;28;19926;-80
2023/01/08 08:49:51;;;;;;;;;;;7.10;99.90;;;;;;5036205;28;19925;-80
2023/01/08 08:52:17;;;;;;;;;;;7.10;99.90;;;;;;5021634;28;19933;-80
2023/01/08 08:54:42;;;;;;;;;;;7.10;99.90;;;;;;5017056;28;19936;-80
2023/01/08 08:57:09;;;;;;;;;;;7.20;99.90;;;;;;5019031;28;20403;-80
2023/01/08 08:59:34;;;;;;;;;;;7.30;99.90;;;;;;5019784;28;20212;-80
2023/01/08 09:02:00;;;;;;;;;;;7.40;99.90;;;;;;5017959;28;19984;-80
2023/01/08 09:04:28;;;;;;;;;;;7.40;99.90;;;;;;5021164;28;19948;-80
2023/01/08 09:06:53;;;;;;;;;;;7.60;99.90;;;;;;5016883;28;19948;-80
2023/01/08 09:09:19;;;;;;;;;;;7.70;99.90;;;;;;5019428;28;19944;-80
2023/01/08 09:11:44;;;;;;;;;;;7.80;99.90;;;;;;5019352;28;19933;-79
2023/01/08 09:14:10;;;;;;;;;;;8.00;99.90;;;;;;5020662;28;19925;-80
2023/01/08 09:16:36;;;;;;;;;;;8.20;99.90;;;;;;5024644;28;19926;-78
2023/01/08 09:19:01;;;;;;;;;;;8.30;99.90;;;;;;5002838;28;19930;-79
2023/01/08 09:21:27;;;;;;;;;;;8.20;99.90;;;;;;5018837;28;19936;-79
2023/01/08 09:23:52;;;;;;;;;;;8.30;99.90;;;;;;5020587;28;19937;-79
2023/01/08 09:26:18;;;;;;;;;;;8.40;99.90;;;;;;5034659;28;20024;-79
2023/01/08 09:28:43;;;;;;;;;;;8.50;99.90;;;;;;5017587;28;19925;-79
2023/01/08 09:31:09;;;;;;;;;;;8.60;99.90;;;;;;5018883;28;19996;-79
2023/01/08 09:33:35;;;;;;;;;;;8.60;99.90;;;;;;5018817;28;19930;-79
2023/01/08 09:36:00;;;;;;;;;;;8.80;99.90;;;;;;5020522;28;19926;-79
2023/01/08 09:38:26;;;;;;;;;;;9.10;99.90;;;;;;5033985;28;19926;-79
2023/01/08 09:40:57;;;;;;;;;;;9.30;99.90;;;;;;5018666;28;19952;-79
2023/01/08 09:43:23;;;;;;;;;;;9.50;99.90;;;;;;5018176;28;20308;-80
2023/01/08 09:45:51;;;;;;;;;;;9.70;99.90;;;;;;5017597;28;19929;-80
2023/01/08 09:48:17;;;;;;;;;;;9.90;99.90;;;;;;5018807;28;19936;-80
2023/01/08 09:50:43;;;;;;;;;;;9.90;99.90;;;;;;5017890;28;19929;-80
2023/01/08 09:53:11;;;;;;;;;;;9.80;99.90;;;;;;5018746;28;20012;-78
2023/01/08 09:55:38;;;;;;;;;;;10.00;99.90;;;;;;5016096;28;20006;-78
2023/01/08 09:58:05;;;;;;;;;;;10.20;99.90;;;;;;5016983;28;20402;-78
2023/01/08 10:00:32;;;;;;;;;;;10.30;99.90;;;;;;5013004;28;20029;-78
2023/01/08 10:02:58;;;;;;;;;;;10.20;99.90;;;;;;5001433;28;19929;-79
2023/01/08 10:05:27;;;;;;;;;;;10.10;99.90;;;;;;4985691;28;19940;-79
2023/01/08 10:07:53;;;;;;;;;;;9.90;99.90;;;;;;5017800;28;19926;-79
2023/01/08 10:10:24;;;;;;;;;;;9.60;99.90;;;;;;5016129;28;19933;-80
2023/01/08 10:12:50;;;;;;;;;;;9.30;99.90;;;;;;5032381;28;19948;-79
2023/01/08 10:15:17;;;;;;;;;;;9.20;99.90;;;;;;5019699;28;19929;-79
2023/01/08 10:17:54;;;;;;;;;;;9.00;99.90;;;;;;5018079;28;20017;-78
2023/01/08 10:20:22;;;;;;;;;;;8.90;99.90;;;;;;5018065;28;19926;-77
2023/01/08 10:22:48;;;;;;;;;;;8.80;99.90;;;;;;5017632;28;20409;-77
2023/01/08 10:25:16;;;;;;;;;;;8.80;99.90;;;;;;5019353;28;19945;-77
2023/01/08 10:27:53;;;;;;;;;;;8.70;99.90;;;;;;5017876;28;19932;-78
2023/01/08 10:30:21;;;;;;;;;;;8.70;99.90;;;;;;5008076;28;19925;-78
2023/01/08 10:32:52;;;;;;;;;;;8.60;99.90;;;;;;5029310;28;19995;-82
2023/01/08 10:35:19;;;;;;;;;;;8.60;99.90;;;;;;5000943;28;20412;-84
2023/01/08 10:37:49;;;;;;;;;;;8.60;99.90;;;;;;5015361;28;19975;-83
2023/01/08 10:40:24;;;;;;;;;;;8.60;99.90;;;;;;5000534;28;19929;-82
2023/01/08 10:42:50;;;;;;;;;;;8.70;99.90;;;;;;5032759;28;19940;-81
2023/01/08 10:45:22;;;;;;;;;;;8.60;99.90;;;;;;5001209;28;20009;-83
2023/01/08 10:47:50;;;;;;;;;;;8.70;99.90;;;;;;5017101;28;20560;-83
2023/01/08 10:50:19;;;;;;;;;;;8.70;99.90;;;;;;5015017;28;20555;-84
2023/01/08 10:52:51;;;;;;;;;;;8.70;99.90;;;;;;5006116;28;19944;-81
2023/01/08 10:55:25;;;;;;;;;;;8.70;99.90;;;;;;5031398;28;20392;-82
2023/01/08 10:57:53;;;;;;;;;;;8.70;99.90;;;;;;5015019;28;20011;-82
2023/01/08 11:00:23;;;;;;;;;;;8.70;99.90;;;;;;5017945;28;20352;-81
2023/01/08 11:02:49;;;;;;;;;;;8.70;99.90;;;;;;5032063;28;19936;-82
2023/01/08 11:05:15;;;;;;;;;;;8.80;99.90;;;;;;5016435;28;19969;-81
2023/01/08 11:07:40;;;;;;;;;;;8.80;99.90;;;;;;5016079;28;20043;-81
2023/01/08 11:10:18;;;;;;;;;;;8.70;99.90;;;;;;5033847;28;19985;-78
2023/01/08 11:12:44;;;;;;;;;;;8.80;99.90;;;;;;5015672;28;19929;-79
2023/01/08 11:15:30;;;;;;;;;;;8.80;99.90;;;;;;5032197;28;19929;-79
2023/01/08 11:18:03;;;;;;;;;;;8.80;99.90;;;;;;5003034;28;20025;-81
2023/01/08 11:20:29;;;;;;;;;;;8.90;99.90;;;;;;5016607;28;19929;-81
2023/01/08 11:23:05;;;;;;;;;;;8.90;99.90;;;;;;5015812;28;20872;-81
2023/01/08 11:25:32;;;;;;;;;;;9.00;99.90;;;;;;5015181;28;19925;-81
2023/01/08 11:27:58;;;;;;;;;;;9.00;99.90;;;;;;5013769;28;19926;-81
2023/01/08 11:30:26;;;;;;;;;;;9.10;99.90;;;;;;5011586;28;19933;-81
2023/01/08 11:33:07;;;;;;;;;;;9.10;99.90;;;;;;5015380;28;20438;-81
2023/01/08 11:35:45;;;;;;;;;;;9.20;99.90;;;;;;5030813;28;19932;-81
2023/01/08 11:38:11;;;;;;;;;;;9.20;99.90;;;;;;5014943;28;19940;-81
2023/01/08 11:40:48;;;;;;;;;;;9.20;99.90;;;;;;5012040;28;19981;-80
2023/01/08 11:43:22;;;;;;;;;;;9.20;99.90;;;;;;5011334;28;19940;-81
2023/01/08 11:45:53;;;;;;;;;;;9.20;99.90;;;;;;4997618;28;19936;-81
2023/01/08 11:48:19;;;;;;;;;;;9.30;99.90;;;;;;5015515;28;19996;-81
2023/01/08 11:50:57;;;;;;;;;;;9.30;99.90;;;;;;5013839;28;19953;-81
2023/01/08 11:53:34;;;;;;;;;;;9.30;99.90;;;;;;5013489;28;19930;-80
2023/01/08 11:56:15;;;;;;;;;;;9.40;99.90;;;;;;5014593;28;19925;-80
2023/01/08 11:59:05;;;;;;;;;;;9.40;99.90;;;;;;5021310;28;20398;-81
2023/01/08 12:01:31;;;;;;;;;;;9.40;99.90;;;;;;5015931;28;19925;-81
2023/01/08 12:04:08;;;;;;;;;;;9.50;99.90;;;;;;5015298;28;19980;-81
2023/01/08 12:06:38;;;;;;;;;;;9.60;99.90;;;;;;5017111;28;20033;-81
2023/01/08 12:09:22;;;;;;;;;;;9.60;99.90;;;;;;4998513;28;20406;-77
2023/01/08 12:12:07;;;;;;;;;;;9.60;99.90;;;;;;5007869;28;19933;-77
2023/01/08 12:14:47;;;;;;;;;;;9.60;99.90;;;;;;4999364;28;20389;-78
2023/01/08 12:17:31;;;;;;;;;;;9.60;99.90;;;;;;5015447;28;19932;-78
2023/01/08 12:20:06;;;;;;;;;;;9.60;99.90;;;;;;5015919;28;19936;-78
2023/01/08 12:22:35;;;;;;;;;;;9.60;99.90;;;;;;5015127;28;19925;-78
2023/01/08 12:25:10;;;;;;;;;;;9.60;99.90;;;;;;5017096;28;19952;-78
2023/01/08 12:27:53;;;;;;;;;;;9.50;99.90;;;;;;5014788;28;19925;-78
2023/01/08 12:30:31;;;;;;;;;;;9.40;99.90;;;;;;5016245;28;19930;-77
2023/01/08 12:33:00;;;;;;;;;;;9.40;99.90;;;;;;5016123;28;19926;-78
2023/01/08 12:35:31;;;;;;;;;;;9.30;99.90;;;;;;5017327;28;19965;-78
2023/01/08 12:37:59;;;;;;;;;;;9.30;99.90;;;;;;5014335;28;19925;-78
2023/01/08 12:40:42;;;;;;;;;;;9.30;99.90;;;;;;5011004;28;19925;-78
2023/01/08 12:43:12;;;;;;;;;;;9.40;99.90;;;;;;5009242;28;19971;-77
2023/01/08 12:45:40;;;;;;;;;;;9.50;99.90;;;;;;5015762;28;19930;-78
2023/01/08 12:48:14;;;;;;;;;;;9.60;99.90;;;;;;5032232;28;19972;-78
2023/01/08 12:50:43;;;;;;;;;;;9.60;99.90;;;;;;5011818;28;19940;-78
2023/01/08 12:53:16;;;;;;;;;;;9.60;99.90;;;;;;5014905;28;19972;-77
2023/01/08 12:55:54;;;;;;;;;;;9.60;99.90;;;;;;5017364;28;19929;-77
2023/01/08 12:58:38;;;;;;;;;;;9.70;99.90;;;;;;5017199;28;19929;-77
2023/01/08 13:01:23;;;;;;;;;;;9.70;99.90;;;;;;5031038;28;20445;-79
2023/01/08 13:03:49;;;;;;;;;;;9.70;99.90;;;;;;5007427;28;19988;-83
2023/01/08 13:06:16;;;;;;;;;;;9.70;99.90;;;;;;5012238;28;19957;-83
2023/01/08 13:08:45;;;;;;;;;;;9.70;99.90;;;;;;5012963;28;19937;-82
2023/01/08 13:11:11;;;;;;;;;;;9.70;99.90;;;;;;4999135;28;19932;-82
2023/01/08 13:13:43;;;;;;;;;;;9.70;99.90;;;;;;5012821;28;19926;-81
2023/01/08 13:16:15;;;;;;;;;;;9.70;99.90;;;;;;5012283;28;20162;-83
2023/01/08 13:18:50;;;;;;;;;;;9.70;99.90;;;;;;5029275;28;19976;-83
2023/01/08 13:21:15;;;;;;;;;;;9.70;99.90;;;;;;5014877;28;20008;-82
2023/01/08 13:23:41;;;;;;;;;;;9.80;99.90;;;;;;5000162;28;19987;-82
2023/01/08 13:26:07;;;;;;;;;;;9.90;99.90;;;;;;5018073;28;19972;-82
2023/01/08 13:28:35;;;;;;;;;;;10.00;99.90;;;;;;5034091;28;19973;-81
2023/01/08 13:31:19;;;;;;;;;;;9.90;99.90;;;;;;5034107;28;19941;-82
2023/01/08 13:33:47;;;;;;;;;;;9.80;99.90;;;;;;5033441;28;19930;-82
2023/01/08 13:36:19;;;;;;;;;;;9.70;99.90;;;;;;5016658;28;19925;-83
2023/01/08 13:38:45;;;;;;;;;;;9.70;99.90;;;;;;5015582;28;20028;-82
2023/01/08 13:41:28;;;;;;;;;;;9.70;99.90;;;;;;5017104;28;19993;-82
2023/01/08 13:44:03;;;;;;;;;;;9.70;99.90;;;;;;5013056;28;19956;-83
2023/01/08 13:46:29;;;;;;;;;;;9.60;99.90;;;;;;5013909;28;19952;-82
2023/01/08 13:48:57;;;;;;;;;;;9.60;99.90;;;;;;5015065;28;19929;-82
2023/01/08 13:51:27;;;;;;;;;;;9.60;99.90;;;;;;5027805;28;19993;-82
2023/01/08 13:53:52;;;;;;;;;;;9.50;99.90;;;;;;5030947;28;19926;-82
2023/01/08 13:56:20;;;;;;;;;;;9.50;99.90;;;;;;5032367;28;19932;-82
2023/01/08 13:58:50;;;;;;;;;;;9.40;99.90;;;;;;5013543;28;20000;-82
2023/01/08 14:01:16;;;;;;;;;;;9.40;99.90;;;;;;5017208;28;19936;-83
2023/01/08 14:03:46;;;;;;;;;;;9.40;99.90;;;;;;5032073;28;19929;-83
2023/01/08 14:06:12;;;;;;;;;;;9.50;99.90;;;;;;5015079;28;19926;-82
2023/01/08 14:08:48;;;;;;;;;;;9.40;99.90;;;;;;5013835;28;19932;-82
2023/01/08 14:11:13;;;;;;;;;;;9.30;99.90;;;;;;5031085;28;19933;-83
2023/01/08 14:13:39;;;;;;;;;;;9.30;99.90;;;;;;5016678;28;19937;-83
2023/01/08 14:16:04;;;;;;;;;;;9.30;99.90;;;;;;4998908;28;20297;-83
2023/01/08 14:18:31;;;;;;;;;;;9.30;99.90;;;;;;5032684;28;20181;-83
2023/01/08 14:20:56;;;;;;;;;;;9.30;99.90;;;;;;5009188;28;19933;-84
2023/01/08 14:23:25;;;;;;;;;;;9.30;99.90;;;;;;5003695;28;19937;-84
2023/01/08 14:25:51;;;;;;;;;;;9.30;99.90;;;;;;5003627;28;19953;-83
2023/01/08 14:28:17;;;;;;;;;;;9.20;99.90;;;;;;5005033;28;19930;-83
2023/01/08 14:30:50;;;;;;;;;;;9.10;99.90;;;;;;5001804;28;19926;-83
2023/01/08 14:33:17;;;;;;;;;;;9.10;99.90;;;;;;5000691;28;20009;-84